Kredarica, Slovenia

1:33 AM CET on December 08, 2016 (GMT +0100)
Finkenstein | | Change Station

Elev 2631 ft 46.55 °N, 13.90 °E | Updated 14 minutes ago

Clear
Clear
31.0 °F
Feels Like 31 °F
N
0.0
Wind Variable Wind from West
Gusts 2.0 mph

Today
High -- | Low -- °F
--% Chance of Precip.
Yesterday
High -- | Low -- °F
Precip. -- in
Pressure 30.63 in
Visibility -9999.0 miles
Clouds
Windchill 31 °F
Dew Point 23 °F
Humidity 71%
Rainfall 0.00 in
Snow Depth Not available.
7:35 AM 4:17 PM
First Quarter, 57% visible
METAR LJLJ 080000Z 00000KT CAVOK M06/M07 Q1037 NOSIG
Pressure 30.63 in
Visibility -9999.0 miles
Clouds
Windchill 31 °F
Dew Point 23 °F
Humidity 71%
Rainfall 0.00 in
Snow Depth Not available.
7:35 AM 4:17 PM
First Quarter, 57% visible
METAR LJLJ 080000Z 00000KT CAVOK M06/M07 Q1037 NOSIG

10-Day Weather Forecast

×

Almanac

Astronomy

Dec. 08, 2016 Rise Set
Actual Time
Civil Twilight
Nautical Twilight
Astronomical Twilight
Moon
Length of Visible Light
Length of Day
Tomorrow will be .
, % of the Moon is Illuminated

Today's Extremes

Country Highs Country Lows

Community

WunderPhotos

Upload Photos

1,956,233 photos uploaded!

WunderBlog® & News

Nearby

Air Quality

  Air Quality AQ Index Pollutant
Not available.

Snow Depth

Station Depth Elevation

Earthquake Activity

City Distance Mag. Time & Date
Minimum magnitude displayed is 2.5.

Coastal Water Temperatures

Place Temperature

Stations

Nearby Weather Stations

Station Location Temp. Windchill Dew Point Humidity Wind Precip. Elev Updated Type